sensor_id;sensor_type;location;lat;lon;timestamp;pressure;altitude;pressure_sealevel;temperature;humidity
9439;BME280;5176;42.622;25.386;2023-05-21T00:01:25;97025.09;;;17.66;63.25
9439;BME280;5176;42.622;25.386;2023-05-21T00:03:52;97009.31;;;17.64;63.71
9439;BME280;5176;42.622;25.386;2023-05-21T00:06:20;97017.56;;;17.61;63.52
9439;BME280;5176;42.622;25.386;2023-05-21T00:08:48;97002.56;;;17.52;65.07
9439;BME280;5176;42.622;25.386;2023-05-21T00:11:15;97004.06;;;17.55;67.04
9439;BME280;5176;42.622;25.386;2023-05-21T00:13:42;96997.38;;;17.51;67.73
9439;BME280;5176;42.622;25.386;2023-05-21T00:16:11;96995.03;;;17.48;68.67
9439;BME280;5176;42.622;25.386;2023-05-21T00:18:38;96987.81;;;17.40;69.65
9439;BME280;5176;42.622;25.386;2023-05-21T00:21:05;96985.53;;;17.45;70.56
9439;BME280;5176;42.622;25.386;2023-05-21T00:23:35;96972.91;;;17.39;71.83
9439;BME280;5176;42.622;25.386;2023-05-21T00:26:04;96972.94;;;17.29;74.27
9439;BME280;5176;42.622;25.386;2023-05-21T00:28:31;96967.78;;;17.28;75.42
9439;BME280;5176;42.622;25.386;2023-05-21T00:30:58;96969.34;;;17.21;77.03
9439;BME280;5176;42.622;25.386;2023-05-21T00:33:27;96968.25;;;17.13;77.52
9439;BME280;5176;42.622;25.386;2023-05-21T00:35:55;96965.88;;;17.10;79.11
9439;BME280;5176;42.622;25.386;2023-05-21T00:38:23;96954.78;;;17.07;79.78
9439;BME280;5176;42.622;25.386;2023-05-21T00:40:52;96963.72;;;16.96;80.84
9439;BME280;5176;42.622;25.386;2023-05-21T00:43:20;96963.88;;;16.85;82.30
9439;BME280;5176;42.622;25.386;2023-05-21T00:45:51;96954.56;;;16.81;81.87
9439;BME280;5176;42.622;25.386;2023-05-21T00:48:21;96962.22;;;16.84;81.68
9439;BME280;5176;42.622;25.386;2023-05-21T00:50:51;96954.16;;;16.85;81.25
9439;BME280;5176;42.622;25.386;2023-05-21T00:53:19;96962.94;;;16.86;81.01
9439;BME280;5176;42.622;25.386;2023-05-21T00:55:46;96953.84;;;16.88;80.26
9439;BME280;5176;42.622;25.386;2023-05-21T00:58:13;96940.91;;;16.85;80.07
9439;BME280;5176;42.622;25.386;2023-05-21T01:00:42;96945.22;;;16.86;80.05
9439;BME280;5176;42.622;25.386;2023-05-21T01:03:11;96936.72;;;16.93;79.36
9439;BME280;5176;42.622;25.386;2023-05-21T01:05:41;96940.88;;;16.95;79.50
9439;BME280;5176;42.622;25.386;2023-05-21T01:08:11;96934.19;;;16.91;78.08
9439;BME280;5176;42.622;25.386;2023-05-21T01:10:39;96930.28;;;16.95;76.99
9439;BME280;5176;42.622;25.386;2023-05-21T01:13:07;96941.28;;;17.00;76.30
9439;BME280;5176;42.622;25.386;2023-05-21T01:15:34;96927.31;;;16.98;77.48
9439;BME280;5176;42.622;25.386;2023-05-21T01:18:03;96937.22;;;16.96;78.03
9439;BME280;5176;42.622;25.386;2023-05-21T01:20:30;96930.44;;;16.94;78.07
9439;BME280;5176;42.622;25.386;2023-05-21T01:22:59;96924.84;;;16.97;77.26
9439;BME280;5176;42.622;25.386;2023-05-21T01:25:26;96917.59;;;16.99;76.95
9439;BME280;5176;42.622;25.386;2023-05-21T01:27:54;96917.03;;;16.95;77.88
9439;BME280;5176;42.622;25.386;2023-05-21T01:30:23;96915.22;;;16.96;77.48
9439;BME280;5176;42.622;25.386;2023-05-21T01:32:59;96915.06;;;16.97;77.17
9439;BME280;5176;42.622;25.386;2023-05-21T01:35:31;96921.50;;;16.95;77.60
9439;BME280;5176;42.622;25.386;2023-05-21T01:38:05;96911.59;;;16.97;75.85
9439;BME280;5176;42.622;25.386;2023-05-21T01:40:40;96911.44;;;16.98;75.53
9439;BME280;5176;42.622;25.386;2023-05-21T01:43:09;96917.59;;;16.99;75.39
9439;BME280;5176;42.622;25.386;2023-05-21T01:45:39;96920.50;;;17.05;73.11
9439;BME280;5176;42.622;25.386;2023-05-21T01:48:08;96920.50;;;17.05;74.12
9439;BME280;5176;42.622;25.386;2023-05-21T01:50:38;96911.84;;;17.03;74.19
9439;BME280;5176;42.622;25.386;2023-05-21T01:53:08;96920.34;;;17.07;74.03
9439;BME280;5176;42.622;25.386;2023-05-21T01:55:35;96915.72;;;17.09;73.19
9439;BME280;5176;42.622;25.386;2023-05-21T01:58:06;96914.91;;;17.08;73.70
9439;BME280;5176;42.622;25.386;2023-05-21T02:00:34;96912.81;;;17.12;72.94
9439;BME280;5176;42.622;25.386;2023-05-21T02:03:02;96921.03;;;17.09;73.40
9439;BME280;5176;42.622;25.386;2023-05-21T02:05:29;96913.06;;;17.09;73.17
9439;BME280;5176;42.622;25.386;2023-05-21T02:07:57;96920.03;;;17.10;72.15
9439;BME280;5176;42.622;25.386;2023-05-21T02:10:26;96920.13;;;17.18;73.55
9439;BME280;5176;42.622;25.386;2023-05-21T02:12:54;96924.59;;;17.17;73.53
9439;BME280;5176;42.622;25.386;2023-05-21T02:15:21;96914.16;;;17.16;72.59
9439;BME280;5176;42.622;25.386;2023-05-21T02:17:49;96921.22;;;17.25;72.27
9439;BME280;5176;42.622;25.386;2023-05-21T02:20:18;96926.16;;;17.20;70.39
9439;BME280;5176;42.622;25.386;2023-05-21T02:22:46;96915.78;;;17.27;69.05
9439;BME280;5176;42.622;25.386;2023-05-21T02:25:16;96924.00;;;17.24;70.13
9439;BME280;5176;42.622;25.386;2023-05-21T02:27:48;96917.31;;;17.29;70.79
9439;BME280;5176;42.622;25.386;2023-05-21T02:30:18;96919.13;;;17.29;72.79
9439;BME280;5176;42.622;25.386;2023-05-21T02:32:45;96926.09;;;17.30;69.79
9439;BME280;5176;42.622;25.386;2023-05-21T02:35:13;96928.47;;;17.23;71.55
9439;BME280;5176;42.622;25.386;2023-05-21T02:37:40;96928.34;;;17.25;70.83
9439;BME280;5176;42.622;25.386;2023-05-21T02:40:08;96931.13;;;17.23;68.50
9439;BME280;5176;42.622;25.386;2023-05-21T02:42:36;96927.22;;;17.27;69.51
9439;BME280;5176;42.622;25.386;2023-05-21T02:45:07;96931.38;;;17.30;68.02
9439;BME280;5176;42.622;25.386;2023-05-21T02:47:35;96918.28;;;17.28;68.14
9439;BME280;5176;42.622;25.386;2023-05-21T02:50:05;96922.06;;;17.26;68.81
9439;BME280;5176;42.622;25.386;2023-05-21T02:52:33;96917.38;;;17.20;68.93
9439;BME280;5176;42.622;25.386;2023-05-21T02:55:00;96924.47;;;17.19;68.92
9439;BME280;5176;42.622;25.386;2023-05-21T02:57:27;96906.78;;;17.20;68.09
9439;BME280;5176;42.622;25.386;2023-05-21T02:59:54;96903.97;;;17.21;67.28
9439;BME280;5176;42.622;25.386;2023-05-21T03:02:23;96917.88;;;17.23;67.36
9439;BME280;5176;42.622;25.386;2023-05-21T03:04:50;96904.50;;;17.25;68.77
9439;BME280;5176;42.622;25.386;2023-05-21T03:07:17;96903.88;;;17.13;70.66
9439;BME280;5176;42.622;25.386;2023-05-21T03:09:45;96914.47;;;17.13;66.69
9439;BME280;5176;42.622;25.386;2023-05-21T03:12:12;96901.22;;;17.13;62.40
9439;BME280;5176;42.622;25.386;2023-05-21T03:14:39;96906.63;;;17.21;63.03
9439;BME280;5176;42.622;25.386;2023-05-21T03:17:08;96904.78;;;17.22;62.71
9439;BME280;5176;42.622;25.386;2023-05-21T03:19:40;96912.31;;;17.26;65.19
9439;BME280;5176;42.622;25.386;2023-05-21T03:22:08;96911.72;;;17.32;65.38
9439;BME280;5176;42.622;25.386;2023-05-21T03:24:36;96922.44;;;17.31;68.11
9439;BME280;5176;42.622;25.386;2023-05-21T03:27:04;96907.84;;;17.27;67.18
9439;BME280;5176;42.622;25.386;2023-05-21T03:29:32;96903.53;;;17.26;65.15
9439;BME280;5176;42.622;25.386;2023-05-21T03:31:59;96913.00;;;17.28;65.85
9439;BME280;5176;42.622;25.386;2023-05-21T03:34:27;96912.69;;;17.31;66.60
9439;BME280;5176;42.622;25.386;2023-05-21T03:36:56;96913.22;;;17.35;67.62
9439;BME280;5176;42.622;25.386;2023-05-21T03:39:23;96915.44;;;17.39;65.69
9439;BME280;5176;42.622;25.386;2023-05-21T03:41:50;96920.75;;;17.39;67.17
9439;BME280;5176;42.622;25.386;2023-05-21T03:44:18;96920.88;;;17.38;68.90
9439;BME280;5176;42.622;25.386;2023-05-21T03:46:45;96918.22;;;17.38;66.93
9439;BME280;5176;42.622;25.386;2023-05-21T03:49:13;96918.22;;;17.38;66.44
9439;BME280;5176;42.622;25.386;2023-05-21T03:51:40;96918.09;;;17.39;67.43
9439;BME280;5176;42.622;25.386;2023-05-21T03:54:09;96915.44;;;17.39;67.06
9439;BME280;5176;42.622;25.386;2023-05-21T03:56:36;96911.66;;;17.42;67.82
9439;BME280;5176;42.622;25.386;2023-05-21T03:59:03;96910.97;;;17.40;69.03
9439;BME280;5176;42.622;25.386;2023-05-21T04:01:30;96914.06;;;17.35;68.60
9439;BME280;5176;42.622;25.386;2023-05-21T04:03:59;96899.44;;;17.31;69.15
9439;BME280;5176;42.622;25.386;2023-05-21T04:06:26;96905.78;;;17.21;70.19
9439;BME280;5176;42.622;25.386;2023-05-21T04:08:54;96910.53;;;17.17;69.76
9439;BME280;5176;42.622;25.386;2023-05-21T04:11:23;96921.53;;;17.22;71.10
9439;BME280;5176;42.622;25.386;2023-05-21T04:13:50;96903.56;;;17.16;73.39
9439;BME280;5176;42.622;25.386;2023-05-21T04:16:18;96913.97;;;17.00;64.32
9439;BME280;5176;42.622;25.386;2023-05-21T04:18:45;96911.13;;;17.11;67.64
9439;BME280;5176;42.622;25.386;2023-05-21T04:21:12;96907.03;;;17.16;68.16
9439;BME280;5176;42.622;25.386;2023-05-21T04:23:40;96913.72;;;17.21;68.41
9439;BME280;5176;42.622;25.386;2023-05-21T04:26:07;96918.28;;;17.28;69.66
9439;BME280;5176;42.622;25.386;2023-05-21T04:28:36;96914.97;;;17.26;70.74
9439;BME280;5176;42.622;25.386;2023-05-21T04:31:06;96919.72;;;17.23;70.69
9439;BME280;5176;42.622;25.386;2023-05-21T04:33:34;96922.16;;;17.34;70.74
9439;BME280;5176;42.622;25.386;2023-05-21T04:36:02;96926.16;;;17.38;72.18
9439;BME280;5176;42.622;25.386;2023-05-21T04:38:29;96923.50;;;17.48;72.38
9439;BME280;5176;42.622;25.386;2023-05-21T04:40:56;96924.31;;;17.48;74.02
9439;BME280;5176;42.622;25.386;2023-05-21T04:43:28;96920.75;;;17.39;70.58
9439;BME280;5176;42.622;25.386;2023-05-21T04:45:58;96924.97;;;17.32;66.80
9439;BME280;5176;42.622;25.386;2023-05-21T04:48:26;96915.56;;;17.38;63.23
9439;BME280;5176;42.622;25.386;2023-05-21T04:50:53;96923.75;;;17.44;63.15
9439;BME280;5176;42.622;25.386;2023-05-21T04:53:22;96913.88;;;17.47;62.31
9439;BME280;5176;42.622;25.386;2023-05-21T04:55:50;96926.66;;;17.51;61.89
9439;BME280;5176;42.622;25.386;2023-05-21T04:58:17;96924.56;;;17.55;59.33
9439;BME280;5176;42.622;25.386;2023-05-21T05:00:45;96931.59;;;17.64;59.47
9439;BME280;5176;42.622;25.386;2023-05-21T05:03:17;96922.53;;;17.66;61.66
9439;BME280;5176;42.622;25.386;2023-05-21T05:05:44;96930.19;;;17.69;59.78
9439;BME280;5176;42.622;25.386;2023-05-21T05:08:11;96925.97;;;17.77;60.42
9439;BME280;5176;42.622;25.386;2023-05-21T05:10:39;96926.81;;;17.77;61.91
9439;BME280;5176;42.622;25.386;2023-05-21T05:13:06;96930.53;;;17.84;60.58
9439;BME280;5176;42.622;25.386;2023-05-21T05:15:33;96897.66;;;17.77;61.38
9439;BME280;5176;42.622;25.386;2023-05-21T05:18:00;96922.03;;;17.98;61.71
9439;BME280;5176;42.622;25.386;2023-05-21T05:20:29;96922.13;;;18.07;62.71
9439;BME280;5176;42.622;25.386;2023-05-21T05:22:56;96921.38;;;18.14;63.27
9439;BME280;5176;42.622;25.386;2023-05-21T05:25:23;96931.38;;;18.20;63.66
9439;BME280;5176;42.622;25.386;2023-05-21T05:27:50;96932.59;;;18.26;63.00
9439;BME280;5176;42.622;25.386;2023-05-21T05:30:18;96932.44;;;18.28;64.49
9439;BME280;5176;42.622;25.386;2023-05-21T05:32:46;96938.94;;;18.33;62.58
9439;BME280;5176;42.622;25.386;2023-05-21T05:35:13;96938.00;;;18.42;63.55
9439;BME280;5176;42.622;25.386;2023-05-21T05:37:42;96942.56;;;18.50;62.08
9439;BME280;5176;42.622;25.386;2023-05-21T05:40:09;96941.78;;;18.58;61.95
9439;BME280;5176;42.622;25.386;2023-05-21T05:42:36;96949.94;;;18.64;64.43
9439;BME280;5176;42.622;25.386;2023-05-21T05:45:04;96941.97;;;18.64;66.16
9439;BME280;5176;42.622;25.386;2023-05-21T05:47:31;96941.00;;;18.65;64.51
9439;BME280;5176;42.622;25.386;2023-05-21T05:49:59;96942.09;;;18.72;63.62
9439;BME280;5176;42.622;25.386;2023-05-21T05:52:26;96955.03;;;18.75;60.93
9439;BME280;5176;42.622;25.386;2023-05-21T05:54:55;96942.38;;;18.69;58.07
9439;BME280;5176;42.622;25.386;2023-05-21T05:57:22;96941.72;;;18.67;60.38
9439;BME280;5176;42.622;25.386;2023-05-21T05:59:49;96945.22;;;18.68;60.77
9439;BME280;5176;42.622;25.386;2023-05-21T06:02:16;96938.28;;;18.75;60.18
9439;BME280;5176;42.622;25.386;2023-05-21T06:04:44;96940.00;;;18.84;60.67
9439;BME280;5176;42.622;25.386;2023-05-21T06:07:11;96949.16;;;18.90;52.93
9439;BME280;5176;42.622;25.386;2023-05-21T06:09:38;96944.88;;;18.97;53.67
9439;BME280;5176;42.622;25.386;2023-05-21T06:12:08;96938.28;;;19.01;55.13
9439;BME280;5176;42.622;25.386;2023-05-21T06:14:35;96949.59;;;19.11;57.05
9439;BME280;5176;42.622;25.386;2023-05-21T06:17:03;96941.00;;;19.17;58.93
9439;BME280;5176;42.622;25.386;2023-05-21T06:19:30;96947.53;;;19.23;61.03
9439;BME280;5176;42.622;25.386;2023-05-21T06:21:58;96946.22;;;19.27;57.42
9439;BME280;5176;42.622;25.386;2023-05-21T06:24:25;96943.91;;;19.32;60.15
9439;BME280;5176;42.622;25.386;2023-05-21T06:26:52;96953.59;;;19.41;59.27
9439;BME280;5176;42.622;25.386;2023-05-21T06:29:21;96943.44;;;19.45;61.45
9439;BME280;5176;42.622;25.386;2023-05-21T06:31:48;96940.97;;;19.51;63.42
9439;BME280;5176;42.622;25.386;2023-05-21T06:34:15;96934.19;;;19.57;63.88
9439;BME280;5176;42.622;25.386;2023-05-21T06:36:43;96940.56;;;19.64;61.40
9439;BME280;5176;42.622;25.386;2023-05-21T06:39:10;96938.25;;;19.69;61.69
9439;BME280;5176;42.622;25.386;2023-05-21T06:41:38;96945.44;;;19.77;62.32
9439;BME280;5176;42.622;25.386;2023-05-21T06:44:05;96939.78;;;19.80;60.21
9439;BME280;5176;42.622;25.386;2023-05-21T06:46:34;96944.44;;;19.78;57.54
9439;BME280;5176;42.622;25.386;2023-05-21T06:49:01;96936.78;;;19.83;59.72
9439;BME280;5176;42.622;25.386;2023-05-21T06:51:31;96944.75;;;19.75;59.13
9439;BME280;5176;42.622;25.386;2023-05-21T06:53:59;96935.44;;;19.71;57.83
9439;BME280;5176;42.622;25.386;2023-05-21T06:56:26;96946.75;;;19.73;57.73
9439;BME280;5176;42.622;25.386;2023-05-21T06:58:53;96944.28;;;19.79;59.44
9439;BME280;5176;42.622;25.386;2023-05-21T07:01:21;96948.09;;;19.85;58.71
9439;BME280;5176;42.622;25.386;2023-05-21T07:03:50;96951.25;;;19.80;58.35
9439;BME280;5176;42.622;25.386;2023-05-21T07:06:19;96946.78;;;19.81;56.39
9439;BME280;5176;42.622;25.386;2023-05-21T07:08:46;96956.78;;;19.87;56.12
9439;BME280;5176;42.622;25.386;2023-05-21T07:11:14;96948.97;;;19.94;54.74
9439;BME280;5176;42.622;25.386;2023-05-21T07:13:42;96943.81;;;20.00;55.92
9439;BME280;5176;42.622;25.386;2023-05-21T07:16:09;96957.63;;;20.04;54.28
9439;BME280;5176;42.622;25.386;2023-05-21T07:18:36;96963.47;;;20.07;56.08
9439;BME280;5176;42.622;25.386;2023-05-21T07:21:05;96958.63;;;20.11;55.32
9439;BME280;5176;42.622;25.386;2023-05-21T07:23:32;96954.97;;;20.12;56.54
9439;BME280;5176;42.622;25.386;2023-05-21T07:26:00;96953.81;;;20.06;54.70
9439;BME280;5176;42.622;25.386;2023-05-21T07:28:27;96963.47;;;20.07;53.59
9439;BME280;5176;42.622;25.386;2023-05-21T07:30:54;96961.81;;;20.14;54.57
9439;BME280;5176;42.622;25.386;2023-05-21T07:33:21;96959.50;;;20.20;55.53
9439;BME280;5176;42.622;25.386;2023-05-21T07:35:49;96955.31;;;20.25;55.47
9439;BME280;5176;42.622;25.386;2023-05-21T07:38:17;96952.16;;;20.30;55.48
9439;BME280;5176;42.622;25.386;2023-05-21T07:40:45;96952.81;;;20.32;54.82
9439;BME280;5176;42.622;25.386;2023-05-21T07:43:12;96959.66;;;20.34;52.89
9439;BME280;5176;42.622;25.386;2023-05-21T07:45:39;96955.81;;;20.37;54.33
9439;BME280;5176;42.622;25.386;2023-05-21T07:48:07;96951.34;;;20.37;54.29
9439;BME280;5176;42.622;25.386;2023-05-21T07:50:34;96954.34;;;20.34;55.91
9439;BME280;5176;42.622;25.386;2023-05-21T07:53:02;96954.50;;;20.33;55.79
9439;BME280;5176;42.622;25.386;2023-05-21T07:55:31;96955.00;;;20.36;55.04
9439;BME280;5176;42.622;25.386;2023-05-21T07:57:58;96950.16;;;20.32;54.33
9439;BME280;5176;42.622;25.386;2023-05-21T08:00:26;96951.69;;;20.34;52.81
9439;BME280;5176;42.622;25.386;2023-05-21T08:02:53;96963.81;;;20.37;52.35
9439;BME280;5176;42.622;25.386;2023-05-21T08:05:21;96958.16;;;20.32;52.09
9439;BME280;5176;42.622;25.386;2023-05-21T08:07:49;96956.66;;;20.21;51.83
9439;BME280;5176;42.622;25.386;2023-05-21T08:10:16;96963.94;;;20.11;54.14
9439;BME280;5176;42.622;25.386;2023-05-21T08:12:45;96956.97;;;20.10;53.84
9439;BME280;5176;42.622;25.386;2023-05-21T08:15:12;96951.81;;;20.17;56.89
9439;BME280;5176;42.622;25.386;2023-05-21T08:17:40;96944.34;;;20.20;54.28
9439;BME280;5176;42.622;25.386;2023-05-21T08:20:08;96959.50;;;20.28;49.71
9439;BME280;5176;42.622;25.386;2023-05-21T08:22:35;96928.38;;;20.20;47.54
9439;BME280;5176;42.622;25.386;2023-05-21T08:25:03;96953.19;;;20.45;45.28
9439;BME280;5176;42.622;25.386;2023-05-21T08:27:31;96943.50;;;20.44;43.13
9439;BME280;5176;42.622;25.386;2023-05-21T08:30:00;96951.38;;;20.54;44.24
9439;BME280;5176;42.622;25.386;2023-05-21T08:32:27;96958.84;;;20.58;43.61
9439;BME280;5176;42.622;25.386;2023-05-21T08:34:54;96953.53;;;20.58;42.93
9439;BME280;5176;42.622;25.386;2023-05-21T08:37:22;96944.03;;;20.64;43.65
9439;BME280;5176;42.622;25.386;2023-05-21T08:39:49;96950.19;;;20.64;44.25
9439;BME280;5176;42.622;25.386;2023-05-21T08:42:26;96942.19;;;20.81;43.81
9439;BME280;5176;42.622;25.386;2023-05-21T08:44:59;96944.31;;;21.02;44.30
9439;BME280;5176;42.622;25.386;2023-05-21T08:47:29;96946.38;;;21.47;41.98
9439;BME280;5176;42.622;25.386;2023-05-21T08:49:59;96953.34;;;21.87;43.40
9439;BME280;5176;42.622;25.386;2023-05-21T08:52:26;96941.63;;;22.27;42.52
9439;BME280;5176;42.622;25.386;2023-05-21T08:54:55;96930.81;;;22.58;42.61
9439;BME280;5176;42.622;25.386;2023-05-21T08:57:24;96945.75;;;22.91;40.67
9439;BME280;5176;42.622;25.386;2023-05-21T08:59:53;96949.47;;;23.19;41.01
9439;BME280;5176;42.622;25.386;2023-05-21T09:02:22;96944.69;;;23.29;39.56
9439;BME280;5176;42.622;25.386;2023-05-21T09:04:50;96932.50;;;23.27;40.09
9439;BME280;5176;42.622;25.386;2023-05-21T09:07:23;96943.00;;;23.58;39.70
9439;BME280;5176;42.622;25.386;2023-05-21T09:09:55;96935.06;;;23.20;38.53
9439;BME280;5176;42.622;25.386;2023-05-21T09:12:23;96934.31;;;22.59;39.44
9439;BME280;5176;42.622;25.386;2023-05-21T09:14:51;96935.06;;;22.30;40.20
9439;BME280;5176;42.622;25.386;2023-05-21T09:17:19;96945.22;;;22.35;39.55
9439;BME280;5176;42.622;25.386;2023-05-21T09:20:08;96939.31;;;22.62;39.91
9439;BME280;5176;42.622;25.386;2023-05-21T09:22:39;96942.06;;;22.92;41.88
9439;BME280;5176;42.622;25.386;2023-05-21T09:25:09;96949.19;;;23.44;40.92
9439;BME280;5176;42.622;25.386;2023-05-21T09:27:37;96940.97;;;23.60;40.02
9439;BME280;5176;42.622;25.386;2023-05-21T09:30:09;96952.34;;;23.47;40.37
9439;BME280;5176;42.622;25.386;2023-05-21T09:32:37;96947.16;;;23.31;40.84
9439;BME280;5176;42.622;25.386;2023-05-21T09:35:09;96950.66;;;23.17;39.25
9439;BME280;5176;42.622;25.386;2023-05-21T09:37:38;96954.81;;;23.04;39.76
9439;BME280;5176;42.622;25.386;2023-05-21T09:40:12;96952.03;;;22.98;40.45
9439;BME280;5176;42.622;25.386;2023-05-21T09:42:42;96953.78;;;23.05;39.98
9439;BME280;5176;42.622;25.386;2023-05-21T09:45:09;96955.81;;;23.03;39.34
9439;BME280;5176;42.622;25.386;2023-05-21T09:47:40;96945.84;;;22.97;39.68
9439;BME280;5176;42.622;25.386;2023-05-21T09:50:11;96952.06;;;23.27;40.18
9439;BME280;5176;42.622;25.386;2023-05-21T09:52:38;96948.44;;;23.20;39.58
9439;BME280;5176;42.622;25.386;2023-05-21T09:55:09;96951.94;;;23.06;40.27
9439;BME280;5176;42.622;25.386;2023-05-21T09:57:40;96950.88;;;23.15;40.93
9439;BME280;5176;42.622;25.386;2023-05-21T10:00:16;96955.00;;;23.18;40.63
9439;BME280;5176;42.622;25.386;2023-05-21T10:02:45;96944.06;;;23.27;39.84
9439;BME280;5176;42.622;25.386;2023-05-21T10:05:15;96942.56;;;23.25;39.78
9439;BME280;5176;42.622;25.386;2023-05-21T10:07:50;96948.63;;;23.33;40.16
9439;BME280;5176;42.622;25.386;2023-05-21T10:10:19;96949.13;;;23.22;39.79
9439;BME280;5176;42.622;25.386;2023-05-21T10:12:52;96946.72;;;23.27;41.53
9439;BME280;5176;42.622;25.386;2023-05-21T10:15:23;96948.25;;;23.07;40.65
9439;BME280;5176;42.622;25.386;2023-05-21T10:17:51;96944.50;;;23.01;42.10
9439;BME280;5176;42.622;25.386;2023-05-21T10:20:21;96943.00;;;22.99;40.83
9439;BME280;5176;42.622;25.386;2023-05-21T10:22:49;96943.72;;;22.93;41.81
9439;BME280;5176;42.622;25.386;2023-05-21T10:25:17;96950.66;;;22.87;41.97
9439;BME280;5176;42.622;25.386;2023-05-21T10:27:45;96950.13;;;22.83;41.78
9439;BME280;5176;42.622;25.386;2023-05-21T10:30:13;96951.06;;;22.76;42.45
9439;BME280;5176;42.622;25.386;2023-05-21T10:32:41;96950.13;;;22.83;42.13
9439;BME280;5176;42.622;25.386;2023-05-21T10:35:09;96947.97;;;22.87;41.50
9439;BME280;5176;42.622;25.386;2023-05-21T10:37:40;96946.34;;;23.01;42.41
9439;BME280;5176;42.622;25.386;2023-05-21T10:40:10;96948.72;;;23.10;43.24
9439;BME280;5176;42.622;25.386;2023-05-21T10:43:04;96952.31;;;23.32;42.35
9439;BME280;5176;42.622;25.386;2023-05-21T10:45:45;96949.84;;;23.31;42.28
9439;BME280;5176;42.622;25.386;2023-05-21T10:48:27;96954.56;;;23.29;42.64
9439;BME280;5176;42.622;25.386;2023-05-21T10:51:21;96958.53;;;23.62;41.14
9439;BME280;5176;42.622;25.386;2023-05-21T10:54:03;96949.91;;;23.82;41.77
9439;BME280;5176;42.622;25.386;2023-05-21T10:56:40;96945.59;;;23.81;42.27
9439;BME280;5176;42.622;25.386;2023-05-21T10:59:16;96956.88;;;23.61;42.77
9439;BME280;5176;42.622;25.386;2023-05-21T11:01:49;96940.66;;;22.81;42.57
9439;BME280;5176;42.622;25.386;2023-05-21T11:04:21;96950.19;;;22.61;43.72
9439;BME280;5176;42.622;25.386;2023-05-21T11:06:48;96951.78;;;22.70;43.09
9439;BME280;5176;42.622;25.386;2023-05-21T11:09:17;96954.91;;;22.73;42.82
9439;BME280;5176;42.622;25.386;2023-05-21T11:11:46;96952.81;;;22.83;44.51
9439;BME280;5176;42.622;25.386;2023-05-21T11:14:25;96963.50;;;22.83;43.36
9439;BME280;5176;42.622;25.386;2023-05-21T11:16:53;96953.34;;;22.79;43.52
9439;BME280;5176;42.622;25.386;2023-05-21T11:19:35;96953.63;;;22.69;44.31
9439;BME280;5176;42.622;25.386;2023-05-21T11:22:07;96952.72;;;22.77;44.15
9439;BME280;5176;42.622;25.386;2023-05-21T11:24:39;96940.38;;;22.53;43.60
9439;BME280;5176;42.622;25.386;2023-05-21T11:27:07;96942.50;;;22.43;44.36
9439;BME280;5176;42.622;25.386;2023-05-21T11:29:52;96945.63;;;22.46;45.30
9439;BME280;5176;42.622;25.386;2023-05-21T11:32:21;96953.84;;;22.60;45.49
9439;BME280;5176;42.622;25.386;2023-05-21T11:34:49;96935.19;;;22.37;44.64
9439;BME280;5176;42.622;25.386;2023-05-21T11:37:27;96946.41;;;22.32;44.58
9439;BME280;5176;42.622;25.386;2023-05-21T11:40:16;96942.56;;;22.35;45.38
9439;BME280;5176;42.622;25.386;2023-05-21T11:42:48;96937.88;;;22.14;45.37
9439;BME280;5176;42.622;25.386;2023-05-21T11:45:17;96935.56;;;22.02;45.13
9439;BME280;5176;42.622;25.386;2023-05-21T11:47:45;96942.56;;;22.03;45.64
9439;BME280;5176;42.622;25.386;2023-05-21T11:50:13;96939.78;;;21.97;45.26
9439;BME280;5176;42.622;25.386;2023-05-21T11:52:42;96942.84;;;21.86;45.35
9439;BME280;5176;42.622;25.386;2023-05-21T11:55:11;96944.28;;;21.96;45.96
9439;BME280;5176;42.622;25.386;2023-05-21T11:57:41;96936.56;;;22.10;46.58
9439;BME280;5176;42.622;25.386;2023-05-21T12:00:13;96940.09;;;22.25;46.71
9439;BME280;5176;42.622;25.386;2023-05-21T12:02:45;96937.22;;;22.35;45.62
9439;BME280;5176;42.622;25.386;2023-05-21T12:05:13;96941.47;;;22.44;45.86
9439;BME280;5176;42.622;25.386;2023-05-21T12:07:41;96940.38;;;22.53;45.29
9439;BME280;5176;42.622;25.386;2023-05-21T12:10:11;96940.28;;;22.46;45.39
9439;BME280;5176;42.622;25.386;2023-05-21T12:12:39;96941.28;;;22.45;45.46
9439;BME280;5176;42.622;25.386;2023-05-21T12:15:07;96939.47;;;22.23;45.83
9439;BME280;5176;42.622;25.386;2023-05-21T12:17:35;96941.66;;;22.19;46.76
9439;BME280;5176;42.622;25.386;2023-05-21T12:20:02;96947.41;;;22.00;45.77
9439;BME280;5176;42.622;25.386;2023-05-21T12:22:33;96963.22;;;21.47;46.42
9439;BME280;5176;42.622;25.386;2023-05-21T12:25:00;96965.13;;;20.98;48.65
9439;BME280;5176;42.622;25.386;2023-05-21T12:27:29;96958.66;;;20.84;54.89
9439;BME280;5176;42.622;25.386;2023-05-21T12:29:56;96955.66;;;20.79;57.53
9439;BME280;5176;42.622;25.386;2023-05-21T12:32:26;96959.69;;;20.59;58.40
9439;BME280;5176;42.622;25.386;2023-05-21T12:34:55;96965.66;;;20.53;60.07
9439;BME280;5176;42.622;25.386;2023-05-21T12:37:23;96957.50;;;20.38;62.21
9439;BME280;5176;42.622;25.386;2023-05-21T12:39:52;96959.00;;;20.40;63.35
9439;BME280;5176;42.622;25.386;2023-05-21T12:42:25;96975.47;;;20.28;65.41
9439;BME280;5176;42.622;25.386;2023-05-21T12:44:54;96972.81;;;20.28;66.03
9439;BME280;5176;42.622;25.386;2023-05-21T12:47:23;96969.78;;;20.23;69.26
9439;BME280;5176;42.622;25.386;2023-05-21T12:49:53;96975.78;;;20.25;72.63
9439;BME280;5176;42.622;25.386;2023-05-21T12:52:23;96966.63;;;20.19;74.37
9439;BME280;5176;42.622;25.386;2023-05-21T12:54:51;96958.63;;;20.19;76.32
9439;BME280;5176;42.622;25.386;2023-05-21T12:57:20;96964.81;;;20.36;79.81
9439;BME280;5176;42.622;25.386;2023-05-21T12:59:49;96958.19;;;20.48;82.56
9439;BME280;5176;42.622;25.386;2023-05-21T13:02:22;96954.34;;;20.59;83.99
9439;BME280;5176;42.622;25.386;2023-05-21T13:04:54;96953.69;;;20.65;83.12
9439;BME280;5176;42.622;25.386;2023-05-21T13:07:22;96955.50;;;20.73;83.19
9439;BME280;5176;42.622;25.386;2023-05-21T13:09:49;96953.00;;;20.79;81.78
9439;BME280;5176;42.622;25.386;2023-05-21T13:12:18;96942.84;;;20.83;83.31
9439;BME280;5176;42.622;25.386;2023-05-21T13:14:47;96941.19;;;20.82;85.32
9439;BME280;5176;42.622;25.386;2023-05-21T13:17:14;96935.50;;;20.85;86.69
9439;BME280;5176;42.622;25.386;2023-05-21T13:20:04;96926.03;;;20.90;89.87